sensor_id;sensor_type;location;lat;lon;timestamp;pressure;altitude;pressure_sealevel;temperature;humidity
56912;BME280;42800;53.928;27.662;2023-02-17T00:01:20;98791.56;;;0.10;100.00
56912;BME280;42800;53.928;27.662;2023-02-17T00:03:47;98808.78;;;0.00;100.00
56912;BME280;42800;53.928;27.662;2023-02-17T00:06:15;98854.66;;;0.09;100.00
56912;BME280;42800;53.928;27.662;2023-02-17T00:08:41;98824.75;;;-0.17;100.00
56912;BME280;42800;53.928;27.662;2023-02-17T00:11:08;98855.88;;;0.03;100.00
56912;BME280;42800;53.928;27.662;2023-02-17T00:13:34;98855.44;;;0.09;100.00
56912;BME280;42800;53.928;27.662;2023-02-17T00:16:06;98839.03;;;-0.03;100.00
56912;BME280;42800;53.928;27.662;2023-02-17T00:18:33;98855.19;;;-0.03;100.00
56912;BME280;42800;53.928;27.662;2023-02-17T00:21:00;98853.16;;;0.03;100.00
56912;BME280;42800;53.928;27.662;2023-02-17T00:23:26;98824.81;;;0.05;100.00
56912;BME280;42800;53.928;27.662;2023-02-17T00:25:52;98819.00;;;0.12;100.00
56912;BME280;42800;53.928;27.662;2023-02-17T00:28:18;98834.88;;;0.13;100.00
56912;BME280;42800;53.928;27.662;2023-02-17T00:30:44;98813.13;;;0.10;100.00
56912;BME280;42800;53.928;27.662;2023-02-17T00:33:11;98850.22;;;0.27;100.00
56912;BME280;42800;53.928;27.662;2023-02-17T00:35:39;98834.66;;;0.23;100.00
56912;BME280;42800;53.928;27.662;2023-02-17T00:38:05;98814.91;;;0.14;100.00
56912;BME280;42800;53.928;27.662;2023-02-17T00:40:32;98828.03;;;0.30;100.00
56912;BME280;42800;53.928;27.662;2023-02-17T00:42:58;98794.41;;;0.27;100.00
56912;BME280;42800;53.928;27.662;2023-02-17T00:45:24;98803.47;;;0.31;100.00
56912;BME280;42800;53.928;27.662;2023-02-17T00:47:50;98770.00;;;0.32;100.00
56912;BME280;42800;53.928;27.662;2023-02-17T00:50:16;98759.84;;;0.29;100.00
56912;BME280;42800;53.928;27.662;2023-02-17T00:52:43;98765.28;;;0.38;100.00
56912;BME280;42800;53.928;27.662;2023-02-17T00:55:10;98734.78;;;0.29;100.00
56912;BME280;42800;53.928;27.662;2023-02-17T00:57:36;98742.38;;;0.27;100.00
56912;BME280;42800;53.928;27.662;2023-02-17T01:00:02;98727.88;;;0.14;100.00
56912;BME280;42800;53.928;27.662;2023-02-17T01:02:29;98723.56;;;0.13;100.00
56912;BME280;42800;53.928;27.662;2023-02-17T01:04:55;98731.81;;;0.16;100.00
56912;BME280;42800;53.928;27.662;2023-02-17T01:07:21;98722.34;;;0.19;100.00
56912;BME280;42800;53.928;27.662;2023-02-17T01:09:48;98724.31;;;0.05;100.00
56912;BME280;42800;53.928;27.662;2023-02-17T01:12:14;98731.47;;;0.09;100.00
56912;BME280;42800;53.928;27.662;2023-02-17T01:14:40;98731.81;;;0.16;100.00
56912;BME280;42800;53.928;27.662;2023-02-17T01:17:07;98720.31;;;0.25;100.00
56912;BME280;42800;53.928;27.662;2023-02-17T01:19:33;98706.97;;;0.19;100.00
56912;BME280;42800;53.928;27.662;2023-02-17T01:21:59;98716.22;;;0.27;100.00
56912;BME280;42800;53.928;27.662;2023-02-17T01:24:25;98695.91;;;0.30;100.00
56912;BME280;42800;53.928;27.662;2023-02-17T01:26:52;98673.25;;;0.31;100.00
56912;BME280;42800;53.928;27.662;2023-02-17T01:29:18;98658.59;;;0.23;100.00
56912;BME280;42800;53.928;27.662;2023-02-17T01:31:45;98661.00;;;0.25;100.00
56912;BME280;42800;53.928;27.662;2023-02-17T01:34:11;98664.72;;;0.37;100.00
56912;BME280;42800;53.928;27.662;2023-02-17T01:36:37;98629.50;;;0.34;100.00
56912;BME280;42800;53.928;27.662;2023-02-17T01:39:03;98593.00;;;0.36;100.00
56912;BME280;42800;53.928;27.662;2023-02-17T01:41:30;98575.59;;;0.42;100.00
56912;BME280;42800;53.928;27.662;2023-02-17T01:44:12;98558.00;;;0.45;100.00
56912;BME280;42800;53.928;27.662;2023-02-17T01:46:39;98546.22;;;0.32;100.00
56912;BME280;42800;53.928;27.662;2023-02-17T01:49:14;98530.38;;;0.39;100.00
56912;BME280;42800;53.928;27.662;2023-02-17T01:51:43;98518.34;;;0.45;100.00
56912;BME280;42800;53.928;27.662;2023-02-17T01:54:14;98483.44;;;0.40;100.00
56912;BME280;42800;53.928;27.662;2023-02-17T01:56:42;98459.00;;;0.28;100.00
56912;BME280;42800;53.928;27.662;2023-02-17T01:59:12;98494.38;;;0.35;100.00
56912;BME280;42800;53.928;27.662;2023-02-17T02:01:41;98477.69;;;0.33;100.00
56912;BME280;42800;53.928;27.662;2023-02-17T02:04:08;98498.47;;;0.33;100.00
56912;BME280;42800;53.928;27.662;2023-02-17T02:06:37;98544.91;;;0.21;100.00
56912;BME280;42800;53.928;27.662;2023-02-17T02:09:07;98555.59;;;0.35;100.00
56912;BME280;42800;53.928;27.662;2023-02-17T02:11:35;98547.19;;;0.36;100.00
56912;BME280;42800;53.928;27.662;2023-02-17T02:14:03;98521.50;;;0.39;100.00
56912;BME280;42800;53.928;27.662;2023-02-17T02:16:36;98509.44;;;0.36;100.00
56912;BME280;42800;53.928;27.662;2023-02-17T02:19:17;98496.75;;;0.45;100.00
56912;BME280;42800;53.928;27.662;2023-02-17T02:22:08;98480.13;;;0.43;100.00
56912;BME280;42800;53.928;27.662;2023-02-17T02:24:48;98463.78;;;0.49;100.00
56912;BME280;42800;53.928;27.662;2023-02-17T02:27:32;98481.22;;;0.42;100.00
56912;BME280;42800;53.928;27.662;2023-02-17T02:33:12;98453.63;;;0.37;100.00
56912;BME280;42800;53.928;27.662;2023-02-17T02:35:46;98469.00;;;0.45;100.00
56912;BME280;42800;53.928;27.662;2023-02-17T02:38:19;98460.75;;;0.41;100.00
56912;BME280;42800;53.928;27.662;2023-02-17T02:40:51;98449.66;;;0.34;100.00
56912;BME280;42800;53.928;27.662;2023-02-17T02:43:19;98453.16;;;0.43;100.00
56912;BME280;42800;53.928;27.662;2023-02-17T02:45:45;98460.88;;;0.36;100.00
56912;BME280;42800;53.928;27.662;2023-02-17T02:48:13;98452.03;;;0.44;100.00
56912;BME280;42800;53.928;27.662;2023-02-17T02:50:53;98449.16;;;0.32;100.00
56912;BME280;42800;53.928;27.662;2023-02-17T02:53:36;98463.94;;;0.43;100.00
56912;BME280;42800;53.928;27.662;2023-02-17T02:56:13;98439.63;;;0.26;100.00
56912;BME280;42800;53.928;27.662;2023-02-17T02:58:48;98450.47;;;0.43;100.00
56912;BME280;42800;53.928;27.662;2023-02-17T03:01:25;98438.41;;;0.41;100.00
56912;BME280;42800;53.928;27.662;2023-02-17T03:04:01;98448.41;;;0.40;100.00
56912;BME280;42800;53.928;27.662;2023-02-17T03:06:36;98454.25;;;0.42;100.00
56912;BME280;42800;53.928;27.662;2023-02-17T03:09:08;98456.00;;;0.38;100.00
56912;BME280;42800;53.928;27.662;2023-02-17T03:11:35;98484.88;;;0.38;100.00
56912;BME280;42800;53.928;27.662;2023-02-17T03:14:03;98524.81;;;0.36;100.00
56912;BME280;42800;53.928;27.662;2023-02-17T03:16:30;98569.41;;;0.42;100.00
56912;BME280;42800;53.928;27.662;2023-02-17T03:18:58;98549.88;;;0.36;100.00
56912;BME280;42800;53.928;27.662;2023-02-17T03:21:27;98554.00;;;0.34;100.00
56912;BME280;42800;53.928;27.662;2023-02-17T03:23:57;98576.66;;;0.33;100.00
56912;BME280;42800;53.928;27.662;2023-02-17T03:26:23;98591.72;;;0.25;100.00
56912;BME280;42800;53.928;27.662;2023-02-17T03:28:49;98620.91;;;0.32;100.00
56912;BME280;42800;53.928;27.662;2023-02-17T03:31:16;98643.59;;;0.31;100.00
56912;BME280;42800;53.928;27.662;2023-02-17T03:33:42;98674.53;;;0.33;100.00
56912;BME280;42800;53.928;27.662;2023-02-17T03:36:09;98678.06;;;0.42;100.00
56912;BME280;42800;53.928;27.662;2023-02-17T03:38:35;98672.22;;;0.40;100.00
56912;BME280;42800;53.928;27.662;2023-02-17T03:41:01;98673.16;;;0.44;100.00
56912;BME280;42800;53.928;27.662;2023-02-17T03:43:28;98661.72;;;0.39;100.00
56912;BME280;42800;53.928;27.662;2023-02-17T03:45:54;98690.47;;;0.43;100.00
56912;BME280;42800;53.928;27.662;2023-02-17T03:48:20;98681.69;;;0.38;100.00
56912;BME280;42800;53.928;27.662;2023-02-17T03:50:46;98696.94;;;0.42;100.00
56912;BME280;42800;53.928;27.662;2023-02-17T03:53:13;98686.16;;;0.42;100.00
56912;BME280;42800;53.928;27.662;2023-02-17T03:55:40;98706.16;;;0.41;100.00
56912;BME280;42800;53.928;27.662;2023-02-17T03:58:06;98708.84;;;0.41;100.00
56912;BME280;42800;53.928;27.662;2023-02-17T04:00:32;98730.59;;;0.45;100.00
56912;BME280;42800;53.928;27.662;2023-02-17T04:02:58;98726.59;;;0.42;100.00
56912;BME280;42800;53.928;27.662;2023-02-17T04:05:24;98744.78;;;0.28;100.00
56912;BME280;42800;53.928;27.662;2023-02-17T04:07:51;98755.13;;;0.35;100.00
56912;BME280;42800;53.928;27.662;2023-02-17T04:10:18;98770.88;;;0.41;100.00
56912;BME280;42800;53.928;27.662;2023-02-17T04:12:44;98769.03;;;0.28;100.00
56912;BME280;42800;53.928;27.662;2023-02-17T04:15:10;98806.19;;;0.31;100.00
56912;BME280;42800;53.928;27.662;2023-02-17T04:17:37;98820.13;;;0.33;100.00
56912;BME280;42800;53.928;27.662;2023-02-17T04:20:04;98826.81;;;0.36;100.00
56912;BME280;42800;53.928;27.662;2023-02-17T04:22:31;98826.41;;;0.42;100.00
56912;BME280;42800;53.928;27.662;2023-02-17T04:24:57;98811.94;;;0.38;100.00
56912;BME280;42800;53.928;27.662;2023-02-17T04:27:24;98818.00;;;0.44;100.00
56912;BME280;42800;53.928;27.662;2023-02-17T04:29:50;98814.09;;;0.50;100.00
56912;BME280;42800;53.928;27.662;2023-02-17T04:32:17;98823.41;;;0.44;100.00
56912;BME280;42800;53.928;27.662;2023-02-17T04:34:43;98822.28;;;0.45;100.00
56912;BME280;42800;53.928;27.662;2023-02-17T04:37:09;98809.22;;;0.38;100.00
56912;BME280;42800;53.928;27.662;2023-02-17T04:39:35;98838.28;;;0.41;100.00
56912;BME280;42800;53.928;27.662;2023-02-17T04:42:01;98834.72;;;0.32;100.00
56912;BME280;42800;53.928;27.662;2023-02-17T04:44:28;98852.56;;;0.42;100.00
56912;BME280;42800;53.928;27.662;2023-02-17T04:46:54;98832.28;;;0.44;100.00
56912;BME280;42800;53.928;27.662;2023-02-17T04:49:21;98813.69;;;0.43;100.00
56912;BME280;42800;53.928;27.662;2023-02-17T04:51:47;98816.72;;;0.41;100.00
56912;BME280;42800;53.928;27.662;2023-02-17T04:54:13;98809.16;;;0.30;100.00
56912;BME280;42800;53.928;27.662;2023-02-17T04:56:39;98879.25;;;0.30;100.00
56912;BME280;42800;53.928;27.662;2023-02-17T04:59:05;98882.19;;;0.19;100.00
56912;BME280;42800;53.928;27.662;2023-02-17T05:01:32;98895.81;;;0.51;100.00
56912;BME280;42800;53.928;27.662;2023-02-17T05:03:58;98884.75;;;0.38;100.00
56912;BME280;42800;53.928;27.662;2023-02-17T05:06:25;98972.78;;;0.20;100.00
56912;BME280;42800;53.928;27.662;2023-02-17T05:08:51;98987.03;;;0.21;100.00
56912;BME280;42800;53.928;27.662;2023-02-17T05:11:18;99012.00;;;0.13;100.00
56912;BME280;42800;53.928;27.662;2023-02-17T05:13:44;99020.78;;;0.18;100.00
56912;BME280;42800;53.928;27.662;2023-02-17T05:16:11;99035.03;;;0.46;100.00
56912;BME280;42800;53.928;27.662;2023-02-17T05:18:37;99001.50;;;0.39;100.00
56912;BME280;42800;53.928;27.662;2023-02-17T05:21:05;99001.00;;;0.37;100.00
56912;BME280;42800;53.928;27.662;2023-02-17T05:23:31;99019.78;;;0.28;100.00
56912;BME280;42800;53.928;27.662;2023-02-17T05:25:58;99080.00;;;0.23;100.00
56912;BME280;42800;53.928;27.662;2023-02-17T05:28:24;99065.28;;;0.02;100.00
56912;BME280;42800;53.928;27.662;2023-02-17T05:30:50;99094.28;;;0.38;100.00
56912;BME280;42800;53.928;27.662;2023-02-17T05:33:16;99052.34;;;0.45;100.00
56912;BME280;42800;53.928;27.662;2023-02-17T05:35:43;99020.56;;;0.42;100.00
56912;BME280;42800;53.928;27.662;2023-02-17T05:38:09;99004.28;;;0.47;100.00
56912;BME280;42800;53.928;27.662;2023-02-17T05:40:38;98984.09;;;0.59;100.00
56912;BME280;42800;53.928;27.662;2023-02-17T05:43:05;98956.72;;;0.52;100.00
56912;BME280;42800;53.928;27.662;2023-02-17T05:45:32;98906.00;;;0.40;100.00
56912;BME280;42800;53.928;27.662;2023-02-17T05:47:59;98917.00;;;0.43;100.00
56912;BME280;42800;53.928;27.662;2023-02-17T05:50:26;98930.69;;;0.69;100.00
56912;BME280;42800;53.928;27.662;2023-02-17T05:52:53;98866.63;;;0.75;100.00
56912;BME280;42800;53.928;27.662;2023-02-17T05:55:20;98806.19;;;0.31;100.00
56912;BME280;42800;53.928;27.662;2023-02-17T05:57:48;98836.22;;;0.61;100.00
56912;BME280;42800;53.928;27.662;2023-02-17T06:00:15;98808.81;;;0.67;100.00
56912;BME280;42800;53.928;27.662;2023-02-17T06:02:41;98779.31;;;0.71;100.00
56912;BME280;42800;53.928;27.662;2023-02-17T06:05:08;98757.22;;;0.69;100.00
56912;BME280;42800;53.928;27.662;2023-02-17T06:07:34;98730.31;;;0.86;100.00
56912;BME280;42800;53.928;27.662;2023-02-17T06:10:01;98689.25;;;0.98;100.00
56912;BME280;42800;53.928;27.662;2023-02-17T06:12:27;98642.03;;;0.78;100.00
56912;BME280;42800;53.928;27.662;2023-02-17T06:14:53;98655.22;;;0.80;100.00
56912;BME280;42800;53.928;27.662;2023-02-17T06:17:19;98636.84;;;0.99;100.00
56912;BME280;42800;53.928;27.662;2023-02-17T06:19:46;98599.56;;;1.10;100.00
56912;BME280;42800;53.928;27.662;2023-02-17T06:22:12;98570.19;;;1.08;100.00
56912;BME280;42800;53.928;27.662;2023-02-17T06:24:38;98572.75;;;1.13;100.00
56912;BME280;42800;53.928;27.662;2023-02-17T06:27:05;98540.50;;;1.08;100.00
56912;BME280;42800;53.928;27.662;2023-02-17T06:29:31;98543.50;;;0.98;100.00
56912;BME280;42800;53.928;27.662;2023-02-17T06:31:58;98525.06;;;0.83;100.00
56912;BME280;42800;53.928;27.662;2023-02-17T06:34:24;98506.50;;;0.90;100.00
56912;BME280;42800;53.928;27.662;2023-02-17T06:36:50;98541.91;;;1.06;100.00
56912;BME280;42800;53.928;27.662;2023-02-17T06:39:17;98498.25;;;1.21;100.00
56912;BME280;42800;53.928;27.662;2023-02-17T06:41:43;98451.56;;;1.12;100.00
56912;BME280;42800;53.928;27.662;2023-02-17T06:44:10;98426.97;;;0.96;100.00
56912;BME280;42800;53.928;27.662;2023-02-17T06:46:36;98422.69;;;1.04;100.00
56912;BME280;42800;53.928;27.662;2023-02-17T06:49:02;98406.66;;;0.99;100.00
56912;BME280;42800;53.928;27.662;2023-02-17T06:51:29;98442.84;;;0.98;100.00
56912;BME280;42800;53.928;27.662;2023-02-17T06:53:55;98438.06;;;1.21;100.00
56912;BME280;42800;53.928;27.662;2023-02-17T06:56:21;98444.75;;;1.14;100.00
56912;BME280;42800;53.928;27.662;2023-02-17T06:58:48;98406.59;;;1.33;100.00
56912;BME280;42800;53.928;27.662;2023-02-17T07:01:17;98417.59;;;1.02;100.00
56912;BME280;42800;53.928;27.662;2023-02-17T07:03:44;98413.91;;;1.24;100.00
56912;BME280;42800;53.928;27.662;2023-02-17T07:06:10;98421.22;;;1.24;100.00
56912;BME280;42800;53.928;27.662;2023-02-17T07:08:36;98412.84;;;0.99;100.00
56912;BME280;42800;53.928;27.662;2023-02-17T07:11:04;98416.91;;;1.40;100.00
56912;BME280;42800;53.928;27.662;2023-02-17T07:13:30;98389.84;;;1.49;100.00
56912;BME280;42800;53.928;27.662;2023-02-17T07:15:56;98376.03;;;1.41;100.00
56912;BME280;42800;53.928;27.662;2023-02-17T07:18:23;98366.25;;;1.28;100.00
56912;BME280;42800;53.928;27.662;2023-02-17T07:20:49;98372.13;;;1.60;100.00
56912;BME280;42800;53.928;27.662;2023-02-17T07:23:16;98353.22;;;1.60;100.00
56912;BME280;42800;53.928;27.662;2023-02-17T07:25:42;98343.41;;;1.55;100.00
56912;BME280;42800;53.928;27.662;2023-02-17T07:28:08;98332.25;;;1.27;100.00
56912;BME280;42800;53.928;27.662;2023-02-17T07:30:36;98339.50;;;0.88;100.00
56912;BME280;42800;53.928;27.662;2023-02-17T07:33:03;98447.88;;;1.25;100.00
56912;BME280;42800;53.928;27.662;2023-02-17T07:35:30;98444.69;;;1.23;100.00
56912;BME280;42800;53.928;27.662;2023-02-17T07:37:56;98448.09;;;0.85;100.00
56912;BME280;42800;53.928;27.662;2023-02-17T07:40:22;98490.16;;;0.78;100.00
56912;BME280;42800;53.928;27.662;2023-02-17T07:42:49;98539.53;;;1.13;100.00
56912;BME280;42800;53.928;27.662;2023-02-17T07:45:15;98599.28;;;0.54;100.00
56912;BME280;42800;53.928;27.662;2023-02-17T07:47:42;98723.84;;;0.96;100.00
56912;BME280;42800;53.928;27.662;2023-02-17T07:50:08;98669.34;;;1.34;100.00
56912;BME280;42800;53.928;27.662;2023-02-17T07:52:35;98608.88;;;0.78;100.00
56912;BME280;42800;53.928;27.662;2023-02-17T07:55:02;98633.84;;;1.01;100.00
56912;BME280;42800;53.928;27.662;2023-02-17T07:57:28;98614.84;;;0.57;100.00
56912;BME280;42800;53.928;27.662;2023-02-17T07:59:55;98652.59;;;0.97;100.00
56912;BME280;42800;53.928;27.662;2023-02-17T08:02:21;98656.44;;;1.13;100.00
56912;BME280;42800;53.928;27.662;2023-02-17T08:04:47;98571.47;;;1.37;100.00
56912;BME280;42800;53.928;27.662;2023-02-17T08:07:13;98505.06;;;1.18;100.00
56912;BME280;42800;53.928;27.662;2023-02-17T08:09:40;98520.13;;;1.46;100.00
56912;BME280;42800;53.928;27.662;2023-02-17T08:12:24;98481.81;;;1.52;100.00
56912;BME280;42800;53.928;27.662;2023-02-17T08:15:10;98513.97;;;0.67;100.00
56912;BME280;42800;53.928;27.662;2023-02-17T08:17:36;98594.91;;;0.76;100.00
56912;BME280;42800;53.928;27.662;2023-02-17T08:20:03;98622.59;;;1.07;100.00
56912;BME280;42800;53.928;27.662;2023-02-17T08:22:30;98631.78;;;0.98;100.00
56912;BME280;42800;53.928;27.662;2023-02-17T08:24:57;98604.97;;;1.36;100.00
56912;BME280;42800;53.928;27.662;2023-02-17T08:27:23;98611.50;;;1.17;100.00
56912;BME280;42800;53.928;27.662;2023-02-17T08:29:49;98579.09;;;1.00;100.00
56912;BME280;42800;53.928;27.662;2023-02-17T08:32:16;98601.97;;;1.29;100.00
56912;BME280;42800;53.928;27.662;2023-02-17T08:34:42;98568.13;;;1.05;100.00
56912;BME280;42800;53.928;27.662;2023-02-17T08:37:09;98603.56;;;1.21;100.00
56912;BME280;42800;53.928;27.662;2023-02-17T08:39:36;98622.63;;;1.68;100.00
56912;BME280;42800;53.928;27.662;2023-02-17T08:42:04;98524.09;;;1.48;100.00
56912;BME280;42800;53.928;27.662;2023-02-17T08:44:32;98506.63;;;1.54;100.00
56912;BME280;42800;53.928;27.662;2023-02-17T08:47:00;98485.75;;;1.72;100.00
56912;BME280;42800;53.928;27.662;2023-02-17T08:49:26;98475.00;;;1.55;100.00
56912;BME280;42800;53.928;27.662;2023-02-17T08:51:54;98432.13;;;1.45;100.00
56912;BME280;42800;53.928;27.662;2023-02-17T08:54:20;98467.59;;;1.17;100.00
56912;BME280;42800;53.928;27.662;2023-02-17T08:56:47;98492.09;;;1.76;100.00
56912;BME280;42800;53.928;27.662;2023-02-17T08:59:14;98421.97;;;1.80;100.00
56912;BME280;42800;53.928;27.662;2023-02-17T09:01:41;98410.94;;;1.64;100.00
56912;BME280;42800;53.928;27.662;2023-02-17T09:04:09;98451.53;;;1.38;100.00
56912;BME280;42800;53.928;27.662;2023-02-17T09:06:38;98488.00;;;1.53;100.00
56912;BME280;42800;53.928;27.662;2023-02-17T09:09:05;98466.38;;;1.70;100.00
56912;BME280;42800;53.928;27.662;2023-02-17T09:11:32;98414.59;;;1.59;100.00
56912;BME280;42800;53.928;27.662;2023-02-17T09:13:58;98439.03;;;1.72;100.00
56912;BME280;42800;53.928;27.662;2023-02-17T09:16:25;98451.53;;;1.85;100.00
56912;BME280;42800;53.928;27.662;2023-02-17T09:18:52;98442.53;;;2.31;100.00
56912;BME280;42800;53.928;27.662;2023-02-17T09:21:19;98345.06;;;1.39;100.00
56912;BME280;42800;53.928;27.662;2023-02-17T09:23:46;98391.56;;;1.92;100.00
56912;BME280;42800;53.928;27.662;2023-02-17T09:26:14;98397.34;;;1.81;100.00
56912;BME280;42800;53.928;27.662;2023-02-17T09:28:41;98384.91;;;1.51;100.00
56912;BME280;42800;53.928;27.662;2023-02-17T09:31:08;98431.19;;;1.40;100.00
56912;BME280;42800;53.928;27.662;2023-02-17T09:33:35;98448.41;;;1.74;100.00
56912;BME280;42800;53.928;27.662;2023-02-17T09:36:01;98478.34;;;1.99;100.00
56912;BME280;42800;53.928;27.662;2023-02-17T09:38:27;98435.22;;;2.02;100.00
56912;BME280;42800;53.928;27.662;2023-02-17T09:41:07;98417.72;;;2.00;100.00
56912;BME280;42800;53.928;27.662;2023-02-17T09:43:39;98459.81;;;1.15;100.00
56912;BME280;42800;53.928;27.662;2023-02-17T09:46:11;98572.75;;;1.13;100.00
56912;BME280;42800;53.928;27.662;2023-02-17T09:48:41;98671.31;;;0.93;100.00
56912;BME280;42800;53.928;27.662;2023-02-17T09:51:14;98705.59;;;1.50;100.00
56912;BME280;42800;53.928;27.662;2023-02-17T09:53:47;98659.03;;;1.71;100.00
56912;BME280;42800;53.928;27.662;2023-02-17T09:56:21;98667.25;;;1.31;100.00
56912;BME280;42800;53.928;27.662;2023-02-17T09:58:50;98745.41;;;1.36;100.00
56912;BME280;42800;53.928;27.662;2023-02-17T10:01:20;98733.25;;;1.82;100.00
56912;BME280;42800;53.928;27.662;2023-02-17T10:03:52;98635.78;;;1.96;100.00
56912;BME280;42800;53.928;27.662;2023-02-17T10:06:23;98638.34;;;1.49;100.00
56912;BME280;42800;53.928;27.662;2023-02-17T10:08:54;98712.56;;;1.60;100.00
56912;BME280;42800;53.928;27.662;2023-02-17T10:11:27;98727.97;;;1.42;100.00
56912;BME280;42800;53.928;27.662;2023-02-17T10:13:57;98722.94;;;1.09;100.00
56912;BME280;42800;53.928;27.662;2023-02-17T10:16:28;98809.88;;;0.89;100.00
56912;BME280;42800;53.928;27.662;2023-02-17T10:18:59;98897.25;;;1.24;100.00
56912;BME280;42800;53.928;27.662;2023-02-17T10:21:27;98866.25;;;0.90;100.00
56912;BME280;42800;53.928;27.662;2023-02-17T10:23:56;98913.03;;;0.86;100.00
56912;BME280;42800;53.928;27.662;2023-02-17T10:26:36;98949.66;;;1.23;100.00
56912;BME280;42800;53.928;27.662;2023-02-17T10:29:16;98918.16;;;1.81;100.00
56912;BME280;42800;53.928;27.662;2023-02-17T10:31:46;98833.69;;;1.18;100.00
56912;BME280;42800;53.928;27.662;2023-02-17T10:34:22;98815.22;;;1.51;100.00
56912;BME280;42800;53.928;27.662;2023-02-17T10:36:56;98785.31;;;1.39;100.00
56912;BME280;42800;53.928;27.662;2023-02-17T10:39:36;98795.41;;;1.64;100.00
56912;BME280;42800;53.928;27.662;2023-02-17T10:42:08;98778.66;;;1.45;100.00
56912;BME280;42800;53.928;27.662;2023-02-17T10:44:39;98753.78;;;1.74;100.00
56912;BME280;42800;53.928;27.662;2023-02-17T10:47:05;98704.47;;;1.51;100.00
56912;BME280;42800;53.928;27.662;2023-02-17T10:49:34;98706.22;;;1.82;100.00
56912;BME280;42800;53.928;27.662;2023-02-17T10:52:09;98703.34;;;2.22;100.00
56912;BME280;42800;53.928;27.662;2023-02-17T10:54:38;98642.63;;;1.76;100.00
56912;BME280;42800;53.928;27.662;2023-02-17T10:57:09;98633.38;;;1.16;100.00
56912;BME280;42800;53.928;27.662;2023-02-17T10:59:39;98699.53;;;1.79;100.00
56912;BME280;42800;53.928;27.662;2023-02-17T11:02:15;98676.19;;;1.83;100.00
56912;BME280;42800;53.928;27.662;2023-02-17T11:04:43;98662.34;;;1.94;100.00
56912;BME280;42800;53.928;27.662;2023-02-17T11:07:11;98667.09;;;1.36;100.00
56912;BME280;42800;53.928;27.662;2023-02-17T11:09:43;98723.56;;;2.07;100.00
56912;BME280;42800;53.928;27.662;2023-02-17T11:12:12;98653.09;;;1.08;100.00
56912;BME280;42800;53.928;27.662;2023-02-17T11:14:44;98785.75;;;1.32;100.00
56912;BME280;42800;53.928;27.662;2023-02-17T11:17:19;98829.13;;;1.93;100.00
56912;BME280;42800;53.928;27.662;2023-02-17T11:19:58;98760.03;;;1.35;100.00
56912;BME280;42800;53.928;27.662;2023-02-17T11:22:33;98828.78;;;1.69;100.00
56912;BME280;42800;53.928;27.662;2023-02-17T11:25:02;98823.00;;;1.53;100.00
56912;BME280;42800;53.928;27.662;2023-02-17T11:27:29;98805.28;;;1.86;100.00
56912;BME280;42800;53.928;27.662;2023-02-17T11:30:05;98724.50;;;1.59;100.00
56912;BME280;42800;53.928;27.662;2023-02-17T11:32:31;98678.53;;;2.02;100.00
56912;BME280;42800;53.928;27.662;2023-02-17T11:34:58;98600.38;;;1.54;100.00
56912;BME280;42800;53.928;27.662;2023-02-17T11:37:27;98681.28;;;1.94;100.00
56912;BME280;42800;53.928;27.662;2023-02-17T11:39:56;98633.06;;;1.96;100.00
56912;BME280;42800;53.928;27.662;2023-02-17T11:42:25;98597.50;;;2.32;100.00
56912;BME280;42800;53.928;27.662;2023-02-17T11:44:54;98521.47;;;2.33;100.00
56912;BME280;42800;53.928;27.662;2023-02-17T11:47:28;98521.97;;;1.80;100.00
56912;BME280;42800;53.928;27.662;2023-02-17T11:50:22;98560.03;;;1.31;100.00
56912;BME280;42800;53.928;27.662;2023-02-17T11:53:01;98657.13;;;1.71;100.00
56912;BME280;42800;53.928;27.662;2023-02-17T11:55:35;98705.69;;;1.36;100.00
56912;BME280;42800;53.928;27.662;2023-02-17T11:58:15;98751.69;;;1.71;100.00
56912;BME280;42800;53.928;27.662;2023-02-17T12:00:47;98706.84;;;2.05;100.00
56912;BME280;42800;53.928;27.662;2023-02-17T12:03:53;98730.19;;;1.49;100.00
56912;BME280;42800;53.928;27.662;2023-02-17T12:06:34;98715.94;;;1.92;100.00
56912;BME280;42800;53.928;27.662;2023-02-17T12:09:11;98661.94;;;2.30;100.00
56912;BME280;42800;53.928;27.662;2023-02-17T12:11:48;98609.91;;;1.42;100.00
56912;BME280;42800;53.928;27.662;2023-02-17T12:17:21;98758.53;;;1.77;100.00
56912;BME280;42800;53.928;27.662;2023-02-17T12:19:58;98725.00;;;1.87;100.00
56912;BME280;42800;53.928;27.662;2023-02-17T12:22:31;98696.69;;;2.02;100.00
56912;BME280;42800;53.928;27.662;2023-02-17T12:25:10;98678.09;;;1.57;100.00
56912;BME280;42800;53.928;27.662;2023-02-17T12:27:53;98722.59;;;2.11;100.00
56912;BME280;42800;53.928;27.662;2023-02-17T12:30:32;98677.44;;;1.95;100.00
56912;BME280;42800;53.928;27.662;2023-02-17T12:33:12;98671.38;;;2.15;100.00
56912;BME280;42800;53.928;27.662;2023-02-17T12:35:46;98654.38;;;1.80;100.00
56912;BME280;42800;53.928;27.662;2023-02-17T12:38:23;98647.09;;;1.46;100.00
56912;BME280;42800;53.928;27.662;2023-02-17T12:40:53;98754.41;;;1.88;100.00
56912;BME280;42800;53.928;27.662;2023-02-17T12:43:24;98763.31;;;1.80;100.00
56912;BME280;42800;53.928;27.662;2023-02-17T12:45:52;98769.97;;;1.74;100.00
56912;BME280;42800;53.928;27.662;2023-02-17T12:48:25;98756.00;;;1.89;100.00
56912;BME280;42800;53.928;27.662;2023-02-17T12:50:58;98741.66;;;1.63;100.00
56912;BME280;42800;53.928;27.662;2023-02-17T12:53:38;98755.47;;;1.44;100.00
56912;BME280;42800;53.928;27.662;2023-02-17T12:56:28;98823.06;;;1.22;100.00
56912;BME280;42800;53.928;27.662;2023-02-17T12:59:09;98903.09;;;1.49;100.00
56912;BME280;42800;53.928;27.662;2023-02-17T13:01:37;98917.97;;;1.37;100.00
56912;BME280;42800;53.928;27.662;2023-02-17T13:04:06;98920.75;;;1.95;100.00
56912;BME280;42800;53.928;27.662;2023-02-17T13:06:36;98905.97;;;1.52;100.00